Fantastic — IBDF — position and weather

sailwx.info

Track history (hours):
 
Tides and Currents Weather Stations Pressure Air Temp Water Temp Dewpoint Dewpoint Depression Visibility Wind Speed Wind Dir Waves Ship Positions

Fantastic

Last reported at 2017-Nov-19 16:40 UTC. Time now 2017-Nov-22 11:13 UTC.
Position N 40°60' E 001°57'.

Length 188 m; draft 6.5 m.

Type: Passenger vessel. MMSI: 247094000.

Date/timePositionNaut miles runAvg speedWind from/ knotsBaromVisibWave heightAir tempDewpointWater temp
2017-Nov-19 16:40N 40°60' E 001°57'421.9
2017-Nov-19 16:30N 41°03' E 001°59'1121.5
2017-Nov-19 16:00N 41°12' E 002°07'25013.8
2017-Nov-18 21:54N 43°14' E 007°01'821.3
2017-Nov-18 21:31N 43°20' E 007°10'1121.5
2017-Nov-18 21:00N 43°26' E 007°21'5421.2
2017-Nov-18 18:28N 43°58' E 008°22'1021.7
2017-Nov-18 18:00N 44°05' E 008°32'1121.7
2017-Nov-18 17:31N 44°12' E 008°44'1121.8
2017-Nov-18 17:00N 44°18' E 008°56'612.1
2017-Nov-18 16:31N 44°24' E 008°55'0 0.6
2017-Nov-18 16:00N 44°24' E 008°55'0 0.0
2017-Nov-18 15:30N 44°24' E 008°55'0 0.0
2017-Nov-18 15:00N 44°24' E 008°55'0 0.0
2017-Nov-18 14:30N 44°24' E 008°55'0 0.0
2017-Nov-18 14:00N 44°24' E 008°55'0 0.0
2017-Nov-18 13:30N 44°24' E 008°55'0 0.0
2017-Nov-18 13:00N 44°24' E 008°55'0 0.0
2017-Nov-18 12:30N 44°24' E 008°55'0 0.0
2017-Nov-18 12:00N 44°24' E 008°55'0 0.0
2017-Nov-18 11:30N 44°24' E 008°55'0 0.0
2017-Nov-18 11:00N 44°24' E 008°55'0 0.0
2017-Nov-18 10:30N 44°24' E 008°55'0 0.0
2017-Nov-18 10:00N 44°24' E 008°55'0 0.0
2017-Nov-18 09:30N 44°24' E 008°55'0 0.0
2017-Nov-18 09:00N 44°24' E 008°55'0 0.0
2017-Nov-18 08:30N 44°24' E 008°55'0 0.0
2017-Nov-18 08:00N 44°24' E 008°55'0 0.0
2017-Nov-18 07:30N 44°24' E 008°55'0 0.0
2017-Nov-18 07:00N 44°24' E 008°55'2 3.8
2017-Nov-18 06:30N 44°23' E 008°57'510.0
2017-Nov-18 06:00N 44°18' E 008°57'918.3
2017-Nov-18 05:31N 44°14' E 008°46'1020.3
2017-Nov-18 05:00N 44°06' E 008°36'1020.4
2017-Nov-18 04:30N 43°60' E 008°26'1220.4
2017-Nov-18 03:55N 43°52' E 008°13'4021.0
2017-Nov-18 02:02N 43°28' E 007°29'320.4
2017-Nov-18 01:53N 43°26' E 007°26'820.7
2017-Nov-18 01:30N 43°21' E 007°17'1020.8
2017-Nov-18 01:00N 43°14' E 007°07'24813.6
2017-Nov-17 06:47N 41°19' E 002°10'4 5.1
2017-Nov-17 05:54N 41°14' E 002°10'614.2
2017-Nov-17 05:30N 41°09' E 002°06'918.0
2017-Nov-17 05:00N 41°01' E 002°01'918.5
2017-Nov-17 04:30N 40°53' E 001°55'21518.5
2017-Nov-16 16:51N 37°45' W 000°20'719.9
2017-Nov-16 16:30N 37°39' W 000°25'1019.9
2017-Nov-16 16:00N 37°31' W 000°33'1019.9
2017-Nov-16 15:30N 37°24' W 000°41'1020.1
2017-Nov-16 15:00N 37°18' W 000°51'1120.0
2017-Nov-16 14:28N 37°11' W 001°01'21419.6
2017-Nov-16 03:31N 35°60' W 005°14'021.2
2017-Nov-16 03:30N 35°60' W 005°14'1020.8
2017-Nov-16 03:00N 35°57' W 005°26'4 0.6
2017-Nov-15 21:13N 35°56' W 005°30'418.9
2017-Nov-15 20:59N 35°59' W 005°27'1020.2
2017-Nov-15 20:31N 36°02' W 005°15'22920.2
2017-Nov-15 09:12N 37°23' W 000°49'421.6
2017-Nov-15 09:00N 37°26' W 000°45'1121.4
2017-Nov-15 08:30N 37°33' W 000°34'1021.0
2017-Nov-15 08:00N 37°42' W 000°27'1120.8
2017-Nov-15 07:28N 37°51' W 000°20'920.5
2017-Nov-15 07:00N 38°00' W 000°15'20920.8
2017-Nov-14 20:57N 41°01' E 002°02'25914.8
2017-Nov-14 03:28N 43°18' E 006°59'1021.9
2017-Nov-14 03:00N 43°25' E 007°09'1122.1
2017-Nov-14 02:30N 43°32' E 007°20'1121.7
2017-Nov-14 02:00N 43°38' E 007°32'4122.2
2017-Nov-14 00:09N 43°59' E 008°22'322.1
2017-Nov-14 00:00N 44°01' E 008°25'1122.1
2017-Nov-13 23:30N 44°08' E 008°37'1122.3
2017-Nov-13 23:00N 44°14' E 008°50'1019.0
2017-Nov-13 22:30N 44°22' E 008°57'3 4.9
2017-Nov-13 21:59N 44°24' E 008°55'35012.9
2017-Nov-12 18:52N 41°18' E 002°10'616.1
2017-Nov-12 18:29N 41°12' E 002°09'1021.5
2017-Nov-12 18:00N 41°03' E 002°02'1121.3
2017-Nov-12 17:30N 40°54' E 001°56'21021.7
2017-Nov-12 07:51N 37°50' W 000°15'822.0
2017-Nov-12 07:30N 37°44' W 000°21'1121.9
2017-Nov-12 07:00N 37°35' W 000°29'1121.5
2017-Nov-12 06:30N 37°27' W 000°38'1121.3
2017-Nov-12 06:00N 37°20' W 000°48'1121.2
2017-Nov-12 05:30N 37°13' W 000°58'21721.1
2017-Nov-11 19:13N 36°00' W 005°12'524.0
2017-Nov-11 19:01N 35°59' W 005°18'11 1.6
2017-Nov-11 12:15N 35°57' W 005°31'416.8
2017-Nov-11 12:00N 35°59' W 005°27'918.4
2017-Nov-11 11:30N 36°01' W 005°16'22420.1
2017-Nov-11 00:24N 37°19' W 000°55'821.4
2017-Nov-11 00:00N 37°25' W 000°47'1121.1
2017-Nov-10 23:30N 37°32' W 000°37'1020.6
2017-Nov-10 23:00N 37°40' W 000°30'1020.5
2017-Nov-10 22:30N 37°49' W 000°23'46717.0
2017-Nov-09 19:00N 43°12' E 007°02'1122.0
2017-Nov-09 18:30N 43°19' E 007°13'1122.2
2017-Nov-09 18:00N 43°26' E 007°26'  
Track history (hours):
 
Tides and Currents Weather Stations Pressure Air Temp Water Temp Dewpoint Dewpoint Depression Visibility Wind Speed Wind Dir Waves Ship Positions

Fantastic

Last reported at 2017-Nov-19 16:40 UTC. Time now 2017-Nov-22 11:13 UTC.
Position N 40°60' E 001°57'.

Length 188 m; draft 6.5 m.

Type: Passenger vessel. MMSI: 247094000.

Date/timePositionNaut miles runAvg speedWind from/ knotsBaromVisibWave heightAir tempDewpointWater temp
2017-Nov-19 16:40N 40°60' E 001°57'421.9
2017-Nov-19 16:30N 41°03' E 001°59'1121.5
2017-Nov-19 16:00N 41°12' E 002°07'25013.8
2017-Nov-18 21:54N 43°14' E 007°01'821.3
2017-Nov-18 21:31N 43°20' E 007°10'1121.5
2017-Nov-18 21:00N 43°26' E 007°21'5421.2
2017-Nov-18 18:28N 43°58' E 008°22'1021.7
2017-Nov-18 18:00N 44°05' E 008°32'1121.7
2017-Nov-18 17:31N 44°12' E 008°44'1121.8
2017-Nov-18 17:00N 44°18' E 008°56'612.1
2017-Nov-18 16:31N 44°24' E 008°55'0 0.6
2017-Nov-18 16:00N 44°24' E 008°55'0 0.0
2017-Nov-18 15:30N 44°24' E 008°55'0 0.0
2017-Nov-18 15:00N 44°24' E 008°55'0 0.0
2017-Nov-18 14:30N 44°24' E 008°55'0 0.0
2017-Nov-18 14:00N 44°24' E 008°55'0 0.0
2017-Nov-18 13:30N 44°24' E 008°55'0 0.0
2017-Nov-18 13:00N 44°24' E 008°55'0 0.0
2017-Nov-18 12:30N 44°24' E 008°55'0 0.0
2017-Nov-18 12:00N 44°24' E 008°55'0 0.0
2017-Nov-18 11:30N 44°24' E 008°55'0 0.0
2017-Nov-18 11:00N 44°24' E 008°55'0 0.0
2017-Nov-18 10:30N 44°24' E 008°55'0 0.0
2017-Nov-18 10:00N 44°24' E 008°55'0 0.0
2017-Nov-18 09:30N 44°24' E 008°55'0 0.0
2017-Nov-18 09:00N 44°24' E 008°55'0 0.0
2017-Nov-18 08:30N 44°24' E 008°55'0 0.0
2017-Nov-18 08:00N 44°24' E 008°55'0 0.0
2017-Nov-18 07:30N 44°24' E 008°55'0 0.0
2017-Nov-18 07:00N 44°24' E 008°55'2 3.8
2017-Nov-18 06:30N 44°23' E 008°57'510.0
2017-Nov-18 06:00N 44°18' E 008°57'918.3
2017-Nov-18 05:31N 44°14' E 008°46'1020.3
2017-Nov-18 05:00N 44°06' E 008°36'1020.4
2017-Nov-18 04:30N 43°60' E 008°26'1220.4
2017-Nov-18 03:55N 43°52' E 008°13'4021.0
2017-Nov-18 02:02N 43°28' E 007°29'320.4
2017-Nov-18 01:53N 43°26' E 007°26'820.7
2017-Nov-18 01:30N 43°21' E 007°17'1020.8
2017-Nov-18 01:00N 43°14' E 007°07'24813.6
2017-Nov-17 06:47N 41°19' E 002°10'4 5.1
2017-Nov-17 05:54N 41°14' E 002°10'614.2
2017-Nov-17 05:30N 41°09' E 002°06'918.0
2017-Nov-17 05:00N 41°01' E 002°01'918.5
2017-Nov-17 04:30N 40°53' E 001°55'21518.5
2017-Nov-16 16:51N 37°45' W 000°20'719.9
2017-Nov-16 16:30N 37°39' W 000°25'1019.9
2017-Nov-16 16:00N 37°31' W 000°33'1019.9
2017-Nov-16 15:30N 37°24' W 000°41'1020.1
2017-Nov-16 15:00N 37°18' W 000°51'1120.0
2017-Nov-16 14:28N 37°11' W 001°01'21419.6
2017-Nov-16 03:31N 35°60' W 005°14'021.2
2017-Nov-16 03:30N 35°60' W 005°14'1020.8
2017-Nov-16 03:00N 35°57' W 005°26'4 0.6
2017-Nov-15 21:13N 35°56' W 005°30'418.9
2017-Nov-15 20:59N 35°59' W 005°27'1020.2
2017-Nov-15 20:31N 36°02' W 005°15'22920.2
2017-Nov-15 09:12N 37°23' W 000°49'421.6
2017-Nov-15 09:00N 37°26' W 000°45'1121.4
2017-Nov-15 08:30N 37°33' W 000°34'1021.0
2017-Nov-15 08:00N 37°42' W 000°27'1120.8
2017-Nov-15 07:28N 37°51' W 000°20'920.5
2017-Nov-15 07:00N 38°00' W 000°15'20920.8
2017-Nov-14 20:57N 41°01' E 002°02'25914.8
2017-Nov-14 03:28N 43°18' E 006°59'1021.9
2017-Nov-14 03:00N 43°25' E 007°09'1122.1
2017-Nov-14 02:30N 43°32' E 007°20'1121.7
2017-Nov-14 02:00N 43°38' E 007°32'4122.2
2017-Nov-14 00:09N 43°59' E 008°22'322.1
2017-Nov-14 00:00N 44°01' E 008°25'1122.1
2017-Nov-13 23:30N 44°08' E 008°37'1122.3
2017-Nov-13 23:00N 44°14' E 008°50'1019.0
2017-Nov-13 22:30N 44°22' E 008°57'3 4.9
2017-Nov-13 21:59N 44°24' E 008°55'35012.9
2017-Nov-12 18:52N 41°18' E 002°10'616.1
2017-Nov-12 18:29N 41°12' E 002°09'1021.5
2017-Nov-12 18:00N 41°03' E 002°02'1121.3
2017-Nov-12 17:30N 40°54' E 001°56'21021.7
2017-Nov-12 07:51N 37°50' W 000°15'822.0
2017-Nov-12 07:30N 37°44' W 000°21'1121.9
2017-Nov-12 07:00N 37°35' W 000°29'1121.5
2017-Nov-12 06:30N 37°27' W 000°38'1121.3
2017-Nov-12 06:00N 37°20' W 000°48'1121.2
2017-Nov-12 05:30N 37°13' W 000°58'21721.1
2017-Nov-11 19:13N 36°00' W 005°12'524.0
2017-Nov-11 19:01N 35°59' W 005°18'11 1.6
2017-Nov-11 12:15N 35°57' W 005°31'416.8
2017-Nov-11 12:00N 35°59' W 005°27'918.4
2017-Nov-11 11:30N 36°01' W 005°16'22420.1
2017-Nov-11 00:24N 37°19' W 000°55'821.4
2017-Nov-11 00:00N 37°25' W 000°47'1121.1
2017-Nov-10 23:30N 37°32' W 000°37'1020.6
2017-Nov-10 23:00N 37°40' W 000°30'1020.5
2017-Nov-10 22:30N 37°49' W 000°23'46717.0
2017-Nov-09 19:00N 43°12' E 007°02'1122.0
2017-Nov-09 18:30N 43°19' E 007°13'1122.2
2017-Nov-09 18:00N 43°26' E 007°26'  

Dump ship's entire track history